createdAt,value
2023-06-04T00:01:35.498Z,8.60
2023-06-04T00:04:02.426Z,99.90
2023-06-04T00:06:29.327Z,1.00
2023-06-04T00:08:56.121Z,99.90
2023-06-04T00:11:23.000Z,99.90
2023-06-04T00:13:49.822Z,1.00
2023-06-04T00:16:16.656Z,1.00
2023-06-04T00:18:43.452Z,1.00
2023-06-04T00:21:10.285Z,1.00
2023-06-04T00:23:37.016Z,1.00
2023-06-04T00:26:04.786Z,1.00
2023-06-04T00:28:31.551Z,1.00
2023-06-04T00:30:58.429Z,1.00
2023-06-04T00:33:25.254Z,1.00
2023-06-04T00:35:51.977Z,1.00
2023-06-04T00:38:18.717Z,1.00
2023-06-04T00:40:45.658Z,1.00
2023-06-04T00:43:14.714Z,1.00
2023-06-04T00:45:43.076Z,1.00
2023-06-04T00:48:10.703Z,1.00
2023-06-04T00:50:39.517Z,1.00
2023-06-04T00:53:07.033Z,1.00
2023-06-04T00:55:33.817Z,1.00
2023-06-04T00:58:02.110Z,21.10
2023-06-04T01:00:28.953Z,99.90
2023-06-04T01:02:57.041Z,99.90
2023-06-04T01:05:26.761Z,99.90
2023-06-04T01:07:54.394Z,99.90
2023-06-04T01:10:23.152Z,99.90
2023-06-04T01:12:49.894Z,99.90
2023-06-04T01:15:16.613Z,99.90
2023-06-04T01:17:48.120Z,99.90
2023-06-04T01:20:26.387Z,99.90
2023-06-04T01:22:53.024Z,99.90
2023-06-04T01:25:38.516Z,99.90
2023-06-04T01:28:06.693Z,99.90
2023-06-04T01:30:44.303Z,99.90
2023-06-04T01:33:13.338Z,99.90
2023-06-04T01:35:40.832Z,99.90
2023-06-04T01:38:08.220Z,99.90
2023-06-04T01:40:35.827Z,99.90
2023-06-04T01:43:02.780Z,99.90
2023-06-04T01:45:30.466Z,99.90
2023-06-04T01:47:57.853Z,99.90
2023-06-04T01:50:24.970Z,99.90
2023-06-04T01:52:51.769Z,99.90
2023-06-04T01:55:18.922Z,99.90
2023-06-04T01:57:46.729Z,99.90
2023-06-04T02:00:14.565Z,99.90
2023-06-04T02:02:46.943Z,99.90
2023-06-04T02:05:13.864Z,99.90
2023-06-04T02:07:43.053Z,99.90
2023-06-04T02:10:11.138Z,99.90
2023-06-04T02:12:39.485Z,99.90
2023-06-04T02:15:07.170Z,99.90
2023-06-04T02:17:33.930Z,99.90
2023-06-04T02:20:01.785Z,99.90
2023-06-04T02:22:28.492Z,99.90
2023-06-04T02:24:55.269Z,99.90
2023-06-04T02:27:21.970Z,99.90
2023-06-04T02:29:48.876Z,99.90
2023-06-04T02:32:15.890Z,99.90
2023-06-04T02:34:42.635Z,99.90
2023-06-04T02:37:09.457Z,99.90
2023-06-04T02:39:36.606Z,99.90
2023-06-04T02:42:03.356Z,99.90
2023-06-04T02:44:31.507Z,99.90
2023-06-04T02:46:58.311Z,99.90
2023-06-04T02:49:25.085Z,99.90
2023-06-04T02:51:52.050Z,99.90
2023-06-04T02:54:18.980Z,99.90
2023-06-04T02:56:45.670Z,99.90
2023-06-04T02:59:14.542Z,99.90
2023-06-04T03:01:41.780Z,99.90
2023-06-04T03:04:10.939Z,99.90
2023-06-04T03:06:41.715Z,99.90
2023-06-04T03:09:08.499Z,99.90
2023-06-04T03:11:35.310Z,99.90
2023-06-04T03:14:02.076Z,99.90
2023-06-04T03:16:29.011Z,99.90
2023-06-04T03:18:56.287Z,99.90
2023-06-04T03:21:23.452Z,99.90
2023-06-04T03:23:50.386Z,99.90
2023-06-04T03:26:17.102Z,99.90
2023-06-04T03:28:43.798Z,99.90
2023-06-04T03:31:11.197Z,99.90
2023-06-04T03:33:37.977Z,99.90
2023-06-04T03:36:05.006Z,99.90
2023-06-04T03:38:31.798Z,99.90
2023-06-04T03:40:58.561Z,99.90
2023-06-04T03:43:25.329Z,99.90
2023-06-04T03:45:52.036Z,99.90
2023-06-04T03:48:18.764Z,99.90
2023-06-04T03:50:47.130Z,99.90
2023-06-04T03:53:14.131Z,99.90
2023-06-04T03:55:40.845Z,99.90
2023-06-04T03:58:10.499Z,99.90
2023-06-04T04:00:37.382Z,92.10
2023-06-04T04:03:04.302Z,99.90
2023-06-04T04:05:31.920Z,99.90
2023-06-04T04:07:58.630Z,99.90
2023-06-04T04:10:25.497Z,99.90
2023-06-04T04:12:54.752Z,99.90
2023-06-04T04:15:21.944Z,99.90
2023-06-04T04:17:48.685Z,99.90
2023-06-04T04:20:17.254Z,99.90
2023-06-04T04:22:44.024Z,99.90
2023-06-04T04:25:10.893Z,99.90
2023-06-04T04:27:41.488Z,99.90
2023-06-04T04:30:08.745Z,99.90
2023-06-04T04:32:35.497Z,99.90
2023-06-04T04:35:02.222Z,99.90
2023-06-04T04:37:29.027Z,99.90
2023-06-04T04:39:56.068Z,99.90
2023-06-04T04:42:22.809Z,99.90
2023-06-04T04:44:51.331Z,99.90
2023-06-04T04:47:18.213Z,99.90
2023-06-04T04:49:45.097Z,99.90
2023-06-04T04:52:11.867Z,99.90
2023-06-04T04:54:38.563Z,99.90
2023-06-04T04:59:38.771Z,99.90
2023-06-04T05:02:05.550Z,99.90
2023-06-04T05:04:32.418Z,99.90
2023-06-04T05:06:59.192Z,99.90
2023-06-04T05:09:26.069Z,99.90
2023-06-04T05:11:53.180Z,99.90
2023-06-04T05:14:19.965Z,99.90
2023-06-04T05:16:46.809Z,91.00
2023-06-04T05:19:13.605Z,55.10
2023-06-04T05:21:40.335Z,99.90
2023-06-04T05:24:07.396Z,37.20
2023-06-04T05:26:34.462Z,33.30
2023-06-04T05:29:02.599Z,99.90
2023-06-04T05:31:29.442Z,99.90
2023-06-04T05:33:56.198Z,77.20
2023-06-04T05:36:22.984Z,23.10
2023-06-04T05:38:58.249Z,96.70
2023-06-04T05:41:25.508Z,33.80
2023-06-04T05:43:52.359Z,50.30
2023-06-04T05:46:19.302Z,24.40
2023-06-04T05:48:46.371Z,41.90
2023-06-04T05:51:15.238Z,76.20
2023-06-04T05:53:41.955Z,73.70
2023-06-04T05:56:08.640Z,99.90
2023-06-04T05:58:35.881Z,93.80
2023-06-04T06:01:02.686Z,99.90
2023-06-04T06:03:30.010Z,99.90
2023-06-04T06:05:58.274Z,99.90
2023-06-04T06:08:25.176Z,99.90
2023-06-04T06:10:51.965Z,72.10
2023-06-04T06:13:18.673Z,22.70
2023-06-04T06:15:49.553Z,35.40
2023-06-04T06:18:16.559Z,97.70
2023-06-04T06:20:43.734Z,47.40
2023-06-04T06:23:10.500Z,73.80
2023-06-04T06:25:37.307Z,54.10
2023-06-04T06:28:04.072Z,37.20
2023-06-04T06:30:30.995Z,26.90
2023-06-04T06:32:57.779Z,31.10
2023-06-04T06:35:24.618Z,54.50
2023-06-04T06:37:51.314Z,45.70
2023-06-04T06:40:18.154Z,40.60
2023-06-04T06:42:50.752Z,44.20
2023-06-04T06:45:18.300Z,33.50
2023-06-04T06:47:45.144Z,51.10
2023-06-04T06:50:12.157Z,36.30
2023-06-04T06:52:39.436Z,83.30
2023-06-04T06:55:06.960Z,34.60
2023-06-04T06:57:34.643Z,37.00
2023-06-04T07:00:01.522Z,17.70
2023-06-04T07:02:29.935Z,13.00
2023-06-04T07:04:56.867Z,1.40
2023-06-04T07:07:23.828Z,1.00
2023-06-04T07:09:51.160Z,1.00
2023-06-04T07:12:17.899Z,1.00
2023-06-04T07:14:44.774Z,1.00
2023-06-04T07:17:11.658Z,1.00
2023-06-04T07:19:38.410Z,1.00
2023-06-04T07:22:05.237Z,1.00
2023-06-04T07:24:31.982Z,1.00
2023-06-04T07:26:58.691Z,1.00
2023-06-04T07:29:25.612Z,1.00
2023-06-04T07:31:52.400Z,1.00
2023-06-04T07:34:19.193Z,1.00
2023-06-04T07:36:46.007Z,1.00
2023-06-04T07:39:12.781Z,1.00
2023-06-04T07:41:39.496Z,1.00
2023-06-04T07:44:06.208Z,1.00
2023-06-04T07:46:32.987Z,1.00
2023-06-04T07:48:59.788Z,1.00
2023-06-04T07:51:26.747Z,99.90
2023-06-04T07:53:53.671Z,1.00
2023-06-04T07:56:20.703Z,99.90
2023-06-04T07:58:47.884Z,99.90
2023-06-04T08:01:14.866Z,99.90
2023-06-04T08:03:42.956Z,1.00
2023-06-04T08:06:10.982Z,99.90
2023-06-04T08:08:37.975Z,99.90
2023-06-04T08:11:05.038Z,99.90
2023-06-04T08:13:32.017Z,99.90
2023-06-04T08:15:58.805Z,1.00
2023-06-04T08:18:25.808Z,99.90
2023-06-04T08:20:52.604Z,99.90
2023-06-04T08:23:19.413Z,1.00
2023-06-04T08:25:46.520Z,1.00
2023-06-04T08:28:20.230Z,1.00
2023-06-04T08:30:46.963Z,1.00
2023-06-04T08:33:13.830Z,1.00
2023-06-04T08:35:40.737Z,1.00
2023-06-04T08:38:07.499Z,1.00
2023-06-04T08:40:35.898Z,1.00
2023-06-04T08:43:03.023Z,1.00
2023-06-04T08:45:33.728Z,1.00
2023-06-04T08:48:01.497Z,1.00
2023-06-04T08:50:28.400Z,1.00
2023-06-04T08:52:56.750Z,1.00
2023-06-04T08:55:23.963Z,99.90
2023-06-04T08:57:54.149Z,1.00
2023-06-04T09:00:21.592Z,99.90
2023-06-04T09:02:51.077Z,1.00
2023-06-04T09:05:23.672Z,1.00
2023-06-04T09:07:54.330Z,1.00
2023-06-04T09:10:23.554Z,1.00
2023-06-04T09:12:52.204Z,1.00
2023-06-04T09:15:19.010Z,99.90
2023-06-04T09:17:45.759Z,1.00
2023-06-04T09:20:23.002Z,1.00
2023-06-04T09:22:49.891Z,1.00
2023-06-04T09:25:28.973Z,1.00
2023-06-04T09:27:58.823Z,1.00
2023-06-04T09:30:25.774Z,1.00
2023-06-04T09:32:54.516Z,1.00
2023-06-04T09:35:21.627Z,1.00
2023-06-04T09:37:58.333Z,1.00
2023-06-04T09:40:25.621Z,1.00
2023-06-04T09:42:56.657Z,1.00
2023-06-04T09:45:34.322Z,1.00
2023-06-04T09:48:01.885Z,1.00
2023-06-04T09:50:34.674Z,1.00
2023-06-04T09:53:03.281Z,1.00
2023-06-04T09:55:30.068Z,1.00
2023-06-04T09:57:57.938Z,1.00
2023-06-04T10:00:25.263Z,1.00
2023-06-04T10:02:58.232Z,1.00
2023-06-04T10:05:26.947Z,1.00
2023-06-04T10:07:56.105Z,1.00
2023-06-04T10:10:26.664Z,1.00
2023-06-04T10:13:03.428Z,1.00
2023-06-04T10:15:31.138Z,1.00
2023-06-04T10:17:58.420Z,1.00
2023-06-04T10:20:25.356Z,1.00
2023-06-04T10:22:52.525Z,1.00
2023-06-04T10:25:20.443Z,1.00
2023-06-04T10:27:47.840Z,1.00
2023-06-04T10:30:14.879Z,1.00
2023-06-04T10:32:42.076Z,1.00
2023-06-04T10:35:09.370Z,1.00
2023-06-04T10:37:36.376Z,1.00
2023-06-04T10:40:05.911Z,1.00
2023-06-04T10:42:40.534Z,1.00
2023-06-04T10:45:09.089Z,1.00
2023-06-04T10:47:38.669Z,1.00
2023-06-04T10:50:13.793Z,1.00
2023-06-04T10:52:56.228Z,1.00
2023-06-04T10:55:23.093Z,1.00
2023-06-04T10:57:53.620Z,1.00
2023-06-04T11:00:20.562Z,1.00
2023-06-04T11:02:52.482Z,1.00
2023-06-04T11:05:19.673Z,1.00
2023-06-04T11:07:49.144Z,1.00
2023-06-04T11:10:17.530Z,1.00
2023-06-04T11:12:49.280Z,1.00
2023-06-04T11:15:17.030Z,1.00
2023-06-04T11:17:54.851Z,1.00
2023-06-04T11:20:23.618Z,1.00
2023-06-04T11:22:57.211Z,1.00
2023-06-04T11:25:27.795Z,1.00
2023-06-04T11:27:55.431Z,1.00
2023-06-04T11:30:22.832Z,1.00
2023-06-04T11:32:50.693Z,1.00
2023-06-04T11:37:58.252Z,1.00
2023-06-04T11:40:25.430Z,1.00
2023-06-04T11:42:52.314Z,1.00
2023-06-04T11:45:21.133Z,1.00
2023-06-04T11:47:56.814Z,1.00
2023-06-04T11:50:27.569Z,1.00
2023-06-04T11:52:55.118Z,1.00
2023-06-04T11:55:22.814Z,1.00
2023-06-04T11:57:52.703Z,1.00
2023-06-04T12:00:20.315Z,1.00
2023-06-04T12:02:52.675Z,1.00
2023-06-04T12:05:20.758Z,1.00
2023-06-04T12:07:52.127Z,1.00
2023-06-04T12:10:22.779Z,1.00
2023-06-04T12:12:56.884Z,1.00
2023-06-04T12:15:23.978Z,1.00
2023-06-04T12:17:55.430Z,1.00
2023-06-04T12:20:35.687Z,1.00
2023-06-04T12:23:03.694Z,1.00
2023-06-04T12:25:31.661Z,1.00
2023-06-04T12:27:58.505Z,1.00
2023-06-04T12:30:39.560Z,1.00
2023-06-04T12:33:07.074Z,1.00
2023-06-04T12:35:34.840Z,1.00
2023-06-04T12:38:03.722Z,1.00
2023-06-04T12:40:30.585Z,1.00
2023-06-04T12:42:57.440Z,1.00
2023-06-04T12:45:24.306Z,1.00
2023-06-04T12:47:51.116Z,1.00
2023-06-04T12:50:21.425Z,1.00
2023-06-04T12:52:49.300Z,1.00
2023-06-04T12:55:16.298Z,1.00
2023-06-04T12:57:45.520Z,1.00
2023-06-04T13:00:12.666Z,1.00
2023-06-04T13:02:39.705Z,1.00
2023-06-04T13:05:06.823Z,1.00
2023-06-04T13:07:33.602Z,1.00
2023-06-04T13:10:00.518Z,1.00
2023-06-04T13:12:27.230Z,1.00
2023-06-04T13:14:54.021Z,1.00
2023-06-04T13:17:22.937Z,1.00
2023-06-04T13:19:50.667Z,1.00
2023-06-04T13:22:17.398Z,1.00
2023-06-04T13:24:44.197Z,1.00
2023-06-04T13:27:10.942Z,1.00
2023-06-04T13:29:37.679Z,1.00
2023-06-04T13:32:05.032Z,1.00
2023-06-04T13:34:33.170Z,1.00
2023-06-04T13:37:01.125Z,1.00
2023-06-04T13:39:28.013Z,1.00
2023-06-04T13:41:54.741Z,1.00
2023-06-04T13:44:27.272Z,1.00
2023-06-04T13:46:54.668Z,1.00
2023-06-04T13:49:22.257Z,1.00
2023-06-04T13:51:49.048Z,1.00
2023-06-04T13:54:15.887Z,1.00
2023-06-04T13:56:42.658Z,1.00
2023-06-04T13:59:09.471Z,1.00
2023-06-04T14:01:36.341Z,1.00
2023-06-04T14:04:07.355Z,1.00
2023-06-04T14:06:36.746Z,1.00
2023-06-04T14:09:03.725Z,1.00
2023-06-04T14:11:30.852Z,1.00
2023-06-04T14:13:57.631Z,1.00
2023-06-04T14:16:24.671Z,1.00
2023-06-04T14:18:51.535Z,1.00
2023-06-04T14:21:18.601Z,1.00
2023-06-04T14:23:45.430Z,1.00
2023-06-04T14:26:13.121Z,1.00
2023-06-04T14:28:39.905Z,1.00
2023-06-04T14:31:07.051Z,1.00
2023-06-04T14:33:36.425Z,1.00
2023-06-04T14:36:03.149Z,1.00
2023-06-04T14:38:30.130Z,1.00
2023-06-04T14:40:57.513Z,1.00
2023-06-04T14:43:24.597Z,1.00
2023-06-04T14:45:51.337Z,1.00
2023-06-04T14:48:18.096Z,1.00
2023-06-04T14:50:44.939Z,1.00
2023-06-04T14:53:13.066Z,1.00
2023-06-04T14:55:40.441Z,1.00
2023-06-04T14:58:07.332Z,1.00
2023-06-04T15:00:34.206Z,1.00
2023-06-04T15:03:03.498Z,1.00
2023-06-04T15:05:32.087Z,1.00
2023-06-04T15:07:59.171Z,1.00
2023-06-04T15:10:26.689Z,1.00
2023-06-04T15:12:53.781Z,1.00
2023-06-04T15:15:20.530Z,1.00
2023-06-04T15:17:48.444Z,1.00
2023-06-04T15:20:15.751Z,1.00
2023-06-04T15:22:42.892Z,1.00
2023-06-04T15:25:09.654Z,1.00
2023-06-04T15:27:36.504Z,1.00
2023-06-04T15:30:04.012Z,1.00
2023-06-04T15:32:30.890Z,1.00
2023-06-04T15:34:58.999Z,1.00
2023-06-04T15:37:26.088Z,1.00
2023-06-04T15:39:52.867Z,1.00
2023-06-04T15:42:19.595Z,1.00
2023-06-04T15:44:46.377Z,1.00
2023-06-04T15:47:13.114Z,1.00
2023-06-04T15:49:39.809Z,1.00
2023-06-04T15:52:06.601Z,1.00
2023-06-04T15:54:45.309Z,1.00
2023-06-04T15:57:13.021Z,1.00
2023-06-04T15:59:39.802Z,1.00
2023-06-04T16:02:07.454Z,1.00
2023-06-04T16:04:34.344Z,1.00
2023-06-04T16:07:01.284Z,1.00
2023-06-04T16:09:29.988Z,1.00
2023-06-04T16:11:56.895Z,1.00
2023-06-04T16:14:23.912Z,1.00
2023-06-04T16:16:50.783Z,1.00
2023-06-04T16:19:18.360Z,1.00
2023-06-04T16:21:45.154Z,1.00
2023-06-04T16:24:11.999Z,1.00
2023-06-04T16:26:38.963Z,1.00
2023-06-04T16:29:05.831Z,1.00
2023-06-04T16:31:32.672Z,1.00
2023-06-04T16:33:59.406Z,1.00
2023-06-04T16:36:26.747Z,1.00
2023-06-04T16:38:53.465Z,1.00
2023-06-04T16:41:20.398Z,1.00
2023-06-04T16:43:48.075Z,1.00
2023-06-04T16:46:14.804Z,1.00
2023-06-04T16:48:41.561Z,1.00
2023-06-04T16:51:08.396Z,1.00
2023-06-04T16:53:35.185Z,1.00
2023-06-04T16:56:02.054Z,1.00
2023-06-04T16:58:28.800Z,1.00
2023-06-04T17:00:56.204Z,1.00
2023-06-04T17:03:23.158Z,1.00
2023-06-04T17:05:50.141Z,1.00
2023-06-04T17:08:16.910Z,1.00
2023-06-04T17:10:43.853Z,1.00
2023-06-04T17:13:10.758Z,1.00
2023-06-04T17:15:37.511Z,1.00
2023-06-04T17:18:11.221Z,1.00
2023-06-04T17:20:38.477Z,1.00
2023-06-04T17:23:23.222Z,1.00
2023-06-04T17:25:50.739Z,1.00
2023-06-04T17:28:17.837Z,1.00
2023-06-04T17:30:45.022Z,1.00
2023-06-04T17:33:12.068Z,1.00
2023-06-04T17:38:21.436Z,1.00
2023-06-04T17:40:48.154Z,1.00
2023-06-04T17:43:14.925Z,1.00
2023-06-04T17:45:41.753Z,1.00
2023-06-04T17:48:09.224Z,1.00
2023-06-04T17:50:36.943Z,1.00
2023-06-04T17:53:03.697Z,1.00
2023-06-04T17:55:30.400Z,1.00
2023-06-04T17:57:57.465Z,1.00
2023-06-04T18:00:24.191Z,1.00
2023-06-04T18:02:51.061Z,1.00
2023-06-04T18:05:17.882Z,1.00
2023-06-04T18:07:46.322Z,1.00
2023-06-04T18:10:15.124Z,1.00
2023-06-04T18:12:44.839Z,1.00
2023-06-04T18:15:11.676Z,1.00
2023-06-04T18:17:38.428Z,1.00
2023-06-04T18:20:05.656Z,99.90
2023-06-04T18:22:32.642Z,99.90
2023-06-04T18:25:00.753Z,1.00
2023-06-04T18:27:27.491Z,1.00
2023-06-04T18:29:54.260Z,99.90
2023-06-04T18:32:20.977Z,99.90
2023-06-04T18:34:47.772Z,1.00
2023-06-04T18:37:14.583Z,99.90
2023-06-04T18:39:41.364Z,1.00
2023-06-04T18:42:21.612Z,99.90
2023-06-04T18:44:58.190Z,99.90
2023-06-04T18:47:25.259Z,1.00
2023-06-04T18:49:52.154Z,99.90
2023-06-04T18:52:18.955Z,99.90
2023-06-04T18:54:45.872Z,99.90
2023-06-04T18:57:15.922Z,99.90
2023-06-04T18:59:42.693Z,99.90
2023-06-04T19:02:09.827Z,99.90
2023-06-04T19:04:36.608Z,99.90
2023-06-04T19:07:03.988Z,99.90
2023-06-04T19:09:30.837Z,99.90
2023-06-04T19:11:57.600Z,99.90
2023-06-04T19:14:24.305Z,99.90
2023-06-04T19:16:52.234Z,99.90
2023-06-04T19:19:21.015Z,99.90
2023-06-04T19:21:53.215Z,99.90
2023-06-04T19:24:21.862Z,99.90
2023-06-04T19:26:49.786Z,99.90
2023-06-04T19:29:16.588Z,99.90
2023-06-04T19:31:43.473Z,99.90
2023-06-04T19:34:10.738Z,99.90
2023-06-04T19:36:37.632Z,99.90
2023-06-04T19:39:04.392Z,99.90
2023-06-04T19:41:31.095Z,99.90
2023-06-04T19:43:57.839Z,99.90
2023-06-04T19:46:24.637Z,99.90
2023-06-04T19:48:52.042Z,99.90
2023-06-04T19:51:18.823Z,99.90
2023-06-04T19:53:45.621Z,99.90
2023-06-04T19:56:12.305Z,1.00
2023-06-04T19:58:39.104Z,99.90
2023-06-04T20:01:06.357Z,99.90
2023-06-04T20:03:35.455Z,99.90
2023-06-04T20:06:02.394Z,99.90
2023-06-04T20:08:29.166Z,99.90
2023-06-04T20:10:56.596Z,99.90
2023-06-04T20:13:23.381Z,99.90
2023-06-04T20:15:50.095Z,99.90
2023-06-04T20:18:16.899Z,99.90
2023-06-04T20:20:43.870Z,99.90
2023-06-04T20:23:10.653Z,99.90
2023-06-04T20:25:37.389Z,99.90
2023-06-04T20:28:04.109Z,99.90
2023-06-04T20:30:31.739Z,99.90
2023-06-04T20:32:58.568Z,99.90
2023-06-04T20:35:25.393Z,1.00
2023-06-04T20:37:52.228Z,99.90
2023-06-04T20:40:18.957Z,99.90
2023-06-04T20:42:45.741Z,99.90
2023-06-04T20:45:12.547Z,1.00
2023-06-04T20:47:39.263Z,1.00
2023-06-04T20:50:06.953Z,1.00
2023-06-04T20:52:34.035Z,99.90
2023-06-04T20:55:00.923Z,99.90
2023-06-04T20:57:27.663Z,1.00
2023-06-04T20:59:54.425Z,99.90
2023-06-04T21:02:21.141Z,1.00
2023-06-04T21:04:47.877Z,99.90
2023-06-04T21:07:14.792Z,1.00
2023-06-04T21:09:41.544Z,1.00
2023-06-04T21:12:08.476Z,1.00
2023-06-04T21:14:35.378Z,1.00
2023-06-04T21:17:02.197Z,1.00
2023-06-04T21:19:30.509Z,1.00
2023-06-04T21:21:57.580Z,1.00
2023-06-04T21:24:24.378Z,1.00
2023-06-04T21:26:51.140Z,1.00
2023-06-04T21:29:18.000Z,1.00
2023-06-04T21:31:44.767Z,1.00
2023-06-04T21:34:11.612Z,24.80
2023-06-04T21:36:38.425Z,99.90
2023-06-04T21:39:05.151Z,99.90
2023-06-04T21:41:31.894Z,99.90
2023-06-04T21:43:58.651Z,99.90
2023-06-04T21:46:26.975Z,99.90
2023-06-04T21:48:53.788Z,99.90
2023-06-04T21:51:20.841Z,99.90
2023-06-04T21:53:47.549Z,99.90
2023-06-04T21:56:14.272Z,1.00
2023-06-04T21:58:41.030Z,99.90
2023-06-04T22:01:09.726Z,1.00
2023-06-04T22:03:37.278Z,1.00
2023-06-04T22:06:04.764Z,1.00
2023-06-04T22:08:31.975Z,24.40
2023-06-04T22:10:58.775Z,1.00
2023-06-04T22:13:25.609Z,1.00
2023-06-04T22:15:52.441Z,99.90
2023-06-04T22:18:19.303Z,99.90
2023-06-04T22:20:46.726Z,82.20
2023-06-04T22:23:13.425Z,99.90
2023-06-04T22:25:40.199Z,99.90
2023-06-04T22:28:06.955Z,99.90
2023-06-04T22:30:33.656Z,99.90
2023-06-04T22:33:00.490Z,99.90
2023-06-04T22:35:27.256Z,99.90
2023-06-04T22:37:53.969Z,99.90
2023-06-04T22:40:21.306Z,99.90
2023-06-04T22:42:48.048Z,99.90
2023-06-04T22:45:14.856Z,99.90
2023-06-04T22:47:41.645Z,1.00
2023-06-04T22:50:09.069Z,99.90
2023-06-04T22:52:40.680Z,1.00
2023-06-04T22:55:09.333Z,1.00
2023-06-04T22:57:36.366Z,1.00
2023-06-04T23:00:04.786Z,1.00
2023-06-04T23:02:31.698Z,1.00
2023-06-04T23:04:58.502Z,1.00
2023-06-04T23:07:25.509Z,1.00
2023-06-04T23:12:19.544Z,1.00
2023-06-04T23:14:46.264Z,1.00
2023-06-04T23:17:13.020Z,1.00
2023-06-04T23:19:39.727Z,1.00
2023-06-04T23:22:06.543Z,1.00
2023-06-04T23:24:34.226Z,1.00
2023-06-04T23:27:00.969Z,1.00
2023-06-04T23:29:27.672Z,1.00
2023-06-04T23:31:54.413Z,19.30
2023-06-04T23:34:21.426Z,59.90
2023-06-04T23:36:48.200Z,54.40
2023-06-04T23:39:15.268Z,99.90
2023-06-04T23:41:42.031Z,99.90
2023-06-04T23:44:09.139Z,38.30
2023-06-04T23:46:35.932Z,1.00
2023-06-04T23:49:02.795Z,1.00
2023-06-04T23:51:29.566Z,1.00
2023-06-04T23:53:56.283Z,1.00
2023-06-04T23:56:23.077Z,1.00
2023-06-04T23:58:49.862Z,1.00
